Menominee, MI

1:55 PM CST on March 05, 2015 (GMT -0600)
City of Marinette | Change Station
CLOSE
Current Station
Personal Weather Station
Location: Marinette, WI
Elevation: 607 ft
Nearby Weather Stations

Elev 607 ft 45.09 °N, 87.63 °W | Updated 8 minutes ago

Clear
Clear
24.8 °F
Feels Like 19 °F
N
4.7
Wind Variable Wind from SSW

Today
High -- | Low -- °F
--% Chance of Precip.
Yesterday
High -- | Low -- °F
Precip. -- in
6:21 AM 5:42 PM
Full, 100% visible
Pressure 30.38 in
Visibility 10.0 miles
Clouds Clear
Windchill 19 °F
Dew Point -0 °F
Humidity 33%
Rainfall in
Snow Depth Not available.
UV 4 out of 12
Pollen .40 out of 12
Air Quality Not available.
Flu Activity Not available.
METAR KMNM 051935Z AUTO 28010KT 220V300 10SM CLR M10/M21 A3038 RMK AO1

More Conditions Fewer Conditions

Pressure 30.38 in
Visibility 10.0 miles
Clouds Clear
Windchill 19 °F
Dew Point -0 °F
Humidity 33%
Rainfall in
Snow Depth Not available.
UV 4 out of 12
Pollen .40 out of 12
Air Quality Not available.
Flu Activity Not available.
METAR KMNM 051935Z AUTO 28010KT 220V300 10SM CLR M10/M21 A3038 RMK AO1

More Conditions Fewer Conditions

10-Day Weather Forecast

Almanac

Astronomy

Mar. 05, 2015 Rise Set
Actual Time
Civil Twilight
Nautical Twilight
Astronomical Twilight
Moon
Length of Visible Light
Length of Day
Tomorrow will be .
, % of the Moon is Illuminated

Today's Extremes

State Highs State Lows

Community

WunderPhotos

Upload Photos

1,802,929 photos uploaded!

WunderBlogs® & News

Nearby

Air Quality

  Air Quality AQ Index Pollutant
Not available.

Snow Depth

Station Depth Elevation

Earthquake Activity

City Distance Mag. Time & Date
Minimum magnitude displayed is 2.5.

Coastal Water Temperatures

Place Temperature

Nearby Weather Stations